Dickinson, ND

6:03 PM MDT on August 27, 2016 (GMT -0600)
Southview | | Change Station

Elev 2434 ft 46.86 °N, 102.78 °W | Updated 4 minutes ago

Clear
Clear
78.5 °F
Feels Like 78 °F
N
7.3
Wind Variable Wind from SW

Today
High -- | Low -- °F
--% Chance of Precip.
Yesterday
High -- | Low -- °F
Precip. -- in
Pressure 29.82 in
Visibility 10.0 miles
Clouds Clear
Heat Index 78 °F
Dew Point 44 °F
Humidity 29%
Rainfall 0.11 in
Snow Depth Not available.
6:04 AM 7:39 PM
Waning Crescent, 20% visible
METAR KDIK 272356Z AUTO 20010KT 10SM CLR 26/03 A2984 RMK AO2 SLP096 T02560033 10272 20222 56006
Pressure 29.82 in
Visibility 10.0 miles
Clouds Clear
Heat Index 78 °F
Dew Point 44 °F
Humidity 29%
Rainfall 0.11 in
Snow Depth Not available.
6:04 AM 7:39 PM
Waning Crescent, 20% visible
METAR KDIK 272356Z AUTO 20010KT 10SM CLR 26/03 A2984 RMK AO2 SLP096 T02560033 10272 20222 56006

10-Day Weather Forecast

Almanac

Astronomy

Aug. 27, 2016 Rise Set
Actual Time
Civil Twilight
Nautical Twilight
Astronomical Twilight
Moon
Length of Visible Light
Length of Day
Tomorrow will be .
, % of the Moon is Illuminated

Today's Extremes

State Highs State Lows

Community

WunderPhotos

Upload Photos

1,935,468 photos uploaded!

WunderBlog® & News

Nearby

Air Quality

  Air Quality AQ Index Pollutant
Not available.

Snow Depth

Station Depth Elevation

Earthquake Activity

City Distance Mag. Time & Date
Minimum magnitude displayed is 2.5.

Coastal Water Temperatures

Place Temperature

Stations

Nearby Weather Stations

Station Location Temp. Windchill Dew Point Humidity Wind Precip. Elev Updated Type
                   

Watches & Warnings

There are currently no watches in effect.